Time;durP1;ratioP1;P1;durP2;ratioP2;P2;SDS_P1;SDS_P2;PMS_P1;PMS_P2;Temp;Humidity;BMP_temperature;BMP_pressure;BME280_temperature;BME280_humidity;BME280_pressure;Samples;Min_cycle;Max_cycle;Signal;HPM_P1;HPM_P2
2022/06/05 00:01:25;;;;;;;16.25;8.85;;;23.10;99.90;;;;;;6215503;23;20032;-81
2022/06/05 00:03:51;;;;;;;15.52;8.75;;;23.10;99.90;;;;;;6215709;23;20005;-80
2022/06/05 00:06:44;;;;;;;16.60;9.05;;;23.10;99.90;;;;;;6215585;23;20013;-81
2022/06/05 00:09:32;;;;;;;15.32;7.95;;;23.20;99.90;;;;;;6213916;23;20011;-81
2022/06/05 00:12:14;;;;;;;13.00;8.00;;;23.20;99.90;;;;;;6215341;23;20004;-81
2022/06/05 00:14:41;;;;;;;19.20;7.97;;;23.10;99.90;;;;;;6213933;23;20388;-82
2022/06/05 00:17:21;;;;;;;12.90;8.50;;;23.10;99.90;;;;;;6215479;23;20004;-81
2022/06/05 00:19:50;;;;;;;21.02;8.32;;;23.00;99.90;;;;;;6215243;23;20095;-81
2022/06/05 00:22:15;;;;;;;18.83;8.18;;;23.00;99.90;;;;;;6215287;23;20452;-81
2022/06/05 00:24:41;;;;;;;14.35;7.65;;;23.00;99.90;;;;;;6213804;23;20001;-82
2022/06/05 00:27:26;;;;;;;13.90;7.70;;;23.00;99.90;;;;;;6213847;23;20026;-82
2022/06/05 00:29:57;;;;;;;15.60;8.07;;;23.00;99.90;;;;;;6215108;23;20003;-81
2022/06/05 00:32:43;;;;;;;13.43;7.25;;;23.00;99.90;;;;;;6214875;23;20062;-82
2022/06/05 00:35:15;;;;;;;13.25;7.43;;;23.00;99.90;;;;;;6214928;23;20508;-82
2022/06/05 00:37:40;;;;;;;15.40;8.13;;;22.90;99.90;;;;;;6214955;23;19997;-82
2022/06/05 00:40:30;;;;;;;13.75;7.53;;;22.90;99.90;;;;;;6214841;23;20055;-81
2022/06/05 00:42:58;;;;;;;11.00;6.47;;;22.90;99.90;;;;;;6214685;23;20023;-82
2022/06/05 00:45:30;;;;;;;13.23;6.60;;;22.80;99.90;;;;;;6214979;23;20084;-82
2022/06/05 00:47:57;;;;;;;14.20;7.68;;;22.80;99.90;;;;;;6214854;23;20452;-82
2022/06/05 00:50:27;;;;;;;13.43;7.43;;;22.80;99.90;;;;;;6214779;23;19997;-81
2022/06/05 00:52:56;;;;;;;14.90;6.97;;;22.80;99.90;;;;;;6214868;23;20036;-81
2022/06/05 00:55:23;;;;;;;14.68;7.22;;;22.80;99.90;;;;;;6214745;23;20001;-81
2022/06/05 00:57:49;;;;;;;11.95;6.50;;;22.80;99.90;;;;;;6214753;23;20078;-81
2022/06/05 01:00:19;;;;;;;15.13;6.45;;;22.80;99.90;;;;;;6215173;23;20002;-82
2022/06/05 01:02:49;;;;;;;11.73;6.43;;;22.80;99.90;;;;;;6215102;23;20012;-81
2022/06/05 01:05:16;;;;;;;16.70;6.28;;;22.90;99.90;;;;;;6215034;23;20051;-82
2022/06/05 01:07:42;;;;;;;12.15;6.55;;;22.90;99.90;;;;;;6214862;23;20067;-82
2022/06/05 01:10:09;;;;;;;9.70;7.18;;;22.80;99.90;;;;;;6214904;23;20456;-82
2022/06/05 01:12:45;;;;;;;16.58;6.70;;;22.80;99.90;;;;;;6214886;23;20004;-81
2022/06/05 01:15:13;;;;;;;10.32;5.88;;;22.90;99.90;;;;;;6215070;23;20500;-82
2022/06/05 01:17:51;;;;;;;7.97;5.30;;;22.80;99.90;;;;;;6214823;23;20390;-82
2022/06/05 01:20:30;;;;;;;12.82;5.63;;;22.80;99.90;;;;;;6214961;23;20004;-81
2022/06/05 01:22:59;;;;;;;10.93;6.07;;;22.80;99.90;;;;;;6215123;23;20024;-82
2022/06/05 01:25:52;;;;;;;11.43;6.10;;;22.90;99.90;;;;;;6215102;23;20380;-81
2022/06/05 01:28:24;;;;;;;12.10;5.18;;;22.90;99.90;;;;;;6215091;23;19996;-82
2022/06/05 01:30:54;;;;;;;9.32;5.90;;;22.90;99.90;;;;;;6214811;23;20011;-82
2022/06/05 01:33:23;;;;;;;11.95;6.18;;;22.90;99.90;;;;;;6214916;23;19996;-82
2022/06/05 01:36:01;;;;;;;8.80;6.45;;;22.80;99.90;;;;;;6214911;23;20000;-82
2022/06/05 01:38:35;;;;;;;11.05;6.38;;;22.80;99.90;;;;;;6215115;23;20080;-82
2022/06/05 01:41:10;;;;;;;12.80;6.13;;;22.80;99.90;;;;;;6215098;23;20005;-82
2022/06/05 01:43:40;;;;;;;11.02;5.35;;;22.80;99.90;;;;;;6215117;23;20008;-82
2022/06/05 01:46:29;;;;;;;9.75;5.40;;;22.80;99.90;;;;;;6215025;23;20131;-82
2022/06/05 01:49:09;;;;;;;12.75;6.40;;;22.80;99.90;;;;;;6214865;23;20429;-81
2022/06/05 01:51:45;;;;;;;11.63;5.93;;;22.80;99.90;;;;;;6214860;23;20005;-82
2022/06/05 01:54:17;;;;;;;10.27;5.38;;;22.80;99.90;;;;;;6216619;23;20000;-81
2022/06/05 01:56:48;;;;;;;13.95;6.60;;;22.70;99.90;;;;;;6216786;23;20011;-82
2022/06/05 01:59:23;;;;;;;10.77;5.60;;;22.70;99.90;;;;;;6216650;23;20032;-82
2022/06/05 02:01:55;;;;;;;8.10;6.28;;;22.70;99.90;;;;;;6216130;23;20011;-82
2022/06/05 02:04:37;;;;;;;10.60;5.45;;;22.70;99.90;;;;;;6216664;23;20000;-82
2022/06/05 02:07:16;;;;;;;15.50;6.57;;;22.70;99.90;;;;;;6189303;23;20027;-82
2022/06/05 02:09:50;;;;;;;7.63;5.25;;;22.60;99.90;;;;;;6215105;23;20064;-82
2022/06/05 02:12:16;;;;;;;13.05;5.95;;;22.50;99.90;;;;;;6216382;23;20005;-81
2022/06/05 02:14:42;;;;;;;11.20;4.32;;;22.50;99.90;;;;;;6216520;23;20432;-82
2022/06/05 02:17:10;;;;;;;11.65;6.03;;;22.50;99.90;;;;;;6216514;23;20001;-82
2022/06/05 02:19:36;;;;;;;7.55;4.90;;;22.40;99.90;;;;;;6214523;23;20016;-82
2022/06/05 02:22:09;;;;;;;14.00;5.07;;;22.40;99.90;;;;;;6216378;23;20079;-82
2022/06/05 02:24:34;;;;;;;9.77;5.05;;;22.40;99.90;;;;;;6216668;23;20009;-82
2022/06/05 02:27:03;;;;;;;11.30;5.40;;;22.40;99.90;;;;;;6216527;23;20104;-82
2022/06/05 02:29:29;;;;;;;8.00;4.82;;;22.40;99.90;;;;;;6216519;23;20008;-82
2022/06/05 02:32:16;;;;;;;11.73;4.90;;;22.40;99.90;;;;;;6216148;23;20008;-81
2022/06/05 02:34:54;;;;;;;7.20;4.78;;;22.40;99.90;;;;;;6216501;23;20028;-82
2022/06/05 02:37:19;;;;;;;12.30;5.32;;;22.40;99.90;;;;;;6216500;23;20051;-82
2022/06/05 02:40:02;;;;;;;15.18;6.35;;;22.30;99.90;;;;;;6216425;23;20005;-82
2022/06/05 02:42:27;;;;;;;9.77;4.65;;;22.30;99.90;;;;;;6214653;23;20428;-81
2022/06/05 02:45:26;;;;;;;12.68;5.57;;;22.30;99.90;;;;;;6216260;23;20040;-82
2022/06/05 02:48:09;;;;;;;12.68;5.25;;;22.40;99.90;;;;;;6216028;23;20000;-82
2022/06/05 02:50:55;;;;;;;11.00;4.90;;;22.40;99.90;;;;;;6216079;23;20024;-82
2022/06/05 02:53:21;;;;;;;13.55;5.20;;;22.40;99.90;;;;;;6216303;23;20000;-81
2022/06/05 02:55:47;;;;;;;10.88;5.53;;;22.30;99.90;;;;;;6216257;23;20008;-82
2022/06/05 02:58:13;;;;;;;15.23;6.03;;;22.40;99.90;;;;;;6216202;23;20499;-82
2022/06/05 03:00:40;;;;;;;13.93;6.40;;;22.40;99.90;;;;;;6216079;23;20008;-82
2022/06/05 03:05:51;;;;;;;14.13;5.65;;;22.40;99.90;;;;;;6215840;23;20038;-83
2022/06/05 03:08:18;;;;;;;10.23;5.30;;;22.40;99.90;;;;;;6215988;23;20016;-81
2022/06/05 03:10:45;;;;;;;7.82;5.00;;;22.40;99.90;;;;;;6215743;23;20009;-82
2022/06/05 03:13:11;;;;;;;8.85;5.53;;;22.40;99.90;;;;;;6215959;23;20429;-82
2022/06/05 03:15:38;;;;;;;8.80;4.63;;;22.40;99.90;;;;;;6215905;23;20039;-82
2022/06/05 03:18:04;;;;;;;8.40;5.53;;;22.40;99.90;;;;;;6215601;23;20441;-81
2022/06/05 03:20:30;;;;;;;11.10;6.00;;;22.40;99.90;;;;;;6215950;23;20008;-82
2022/06/05 03:22:56;;;;;;;16.27;6.57;;;22.40;99.90;;;;;;6214273;23;20340;-82
2022/06/05 03:25:24;;;;;;;11.57;5.35;;;22.40;99.90;;;;;;6216021;23;20440;-82
2022/06/05 03:27:49;;;;;;;16.63;5.80;;;22.30;99.90;;;;;;6215806;23;20004;-82
2022/06/05 03:30:16;;;;;;;9.30;5.28;;;22.30;99.90;;;;;;6215748;23;19997;-82
2022/06/05 03:32:43;;;;;;;12.55;6.30;;;22.30;99.90;;;;;;6215653;23;20028;-82
2022/06/05 03:35:10;;;;;;;13.05;6.30;;;22.20;99.90;;;;;;6215799;23;20378;-82
2022/06/05 03:37:36;;;;;;;12.60;7.43;;;22.20;99.90;;;;;;6215884;23;20432;-82
2022/06/05 03:40:03;;;;;;;16.15;6.22;;;22.20;99.90;;;;;;6215640;23;19997;-82
2022/06/05 03:42:29;;;;;;;14.80;6.43;;;22.20;99.90;;;;;;6215566;23;20054;-82
2022/06/05 03:44:54;;;;;;;9.93;5.65;;;22.20;99.90;;;;;;6215882;23;20000;-82
2022/06/05 03:47:20;;;;;;;11.93;5.80;;;22.20;99.90;;;;;;6215748;23;20005;-82
2022/06/05 03:49:46;;;;;;;18.02;6.03;;;22.20;99.90;;;;;;6215640;23;20039;-82
2022/06/05 03:52:11;;;;;;;10.85;5.90;;;22.20;99.90;;;;;;6215411;23;20000;-82
2022/06/05 03:54:39;;;;;;;8.88;6.00;;;22.20;99.90;;;;;;6215593;23;20084;-82
2022/06/05 03:57:06;;;;;;;13.10;6.18;;;22.20;99.90;;;;;;6215599;23;19997;-82
2022/06/05 03:59:34;;;;;;;11.27;5.20;;;22.10;99.90;;;;;;6215642;23;19996;-81
2022/06/05 04:02:00;;;;;;;12.98;6.72;;;22.10;99.90;;;;;;6215388;23;20000;-81
2022/06/05 04:04:29;;;;;;;12.20;6.50;;;22.10;99.90;;;;;;6214044;23;20011;-82
2022/06/05 04:06:55;;;;;;;10.05;5.78;;;22.10;99.90;;;;;;6215549;23;20000;-82
2022/06/05 04:09:20;;;;;;;13.15;6.45;;;22.10;99.90;;;;;;6215677;23;20005;-81
2022/06/05 04:11:46;;;;;;;16.02;6.65;;;22.10;99.90;;;;;;6215439;23;20005;-82
2022/06/05 04:14:12;;;;;;;10.60;6.93;;;22.00;99.90;;;;;;6215589;23;20105;-82
2022/06/05 04:16:40;;;;;;;11.40;6.13;;;22.00;99.90;;;;;;6215250;23;20472;-82
2022/06/05 04:19:05;;;;;;;9.48;5.97;;;22.00;99.90;;;;;;6215323;23;20008;-83
2022/06/05 04:21:34;;;;;;;10.95;5.65;;;22.00;99.90;;;;;;6215170;23;20108;-81
2022/06/05 04:24:00;;;;;;;10.75;6.40;;;22.10;99.90;;;;;;6213902;23;20012;-82
2022/06/05 04:26:31;;;;;;;15.80;6.43;;;22.10;99.90;;;;;;6215367;23;20432;-82
2022/06/05 04:28:57;;;;;;;11.63;5.80;;;22.20;99.90;;;;;;6215477;23;20498;-82
2022/06/05 04:31:27;;;;;;;11.52;6.00;;;22.20;99.90;;;;;;6215023;23;20005;-83
2022/06/05 04:33:56;;;;;;;11.15;5.80;;;22.30;99.90;;;;;;6215464;23;19997;-82
2022/06/05 04:36:22;;;;;;;12.25;5.07;;;22.20;99.90;;;;;;6215362;23;20025;-82
2022/06/05 04:38:49;;;;;;;11.85;5.43;;;22.30;99.90;;;;;;6215333;23;20440;-81
2022/06/05 04:41:15;;;;;;;10.98;5.45;;;22.30;99.90;;;;;;6215175;23;20019;-82
2022/06/05 04:43:41;;;;;;;14.10;5.45;;;22.30;99.90;;;;;;6213702;23;20008;-82
2022/06/05 04:46:08;;;;;;;15.13;5.10;;;22.30;99.90;;;;;;6215356;23;20026;-82
2022/06/05 04:48:34;;;;;;;14.38;5.03;;;22.40;99.90;;;;;;6215328;23;20066;-82
2022/06/05 04:51:08;;;;;;;12.20;5.18;;;22.40;99.90;;;;;;6214903;23;20088;-81
2022/06/05 04:53:34;;;;;;;15.73;6.15;;;22.50;99.90;;;;;;6215267;23;20544;-82
2022/06/05 04:56:07;;;;;;;8.07;5.05;;;22.50;99.90;;;;;;6215148;23;19992;-82
2022/06/05 04:58:34;;;;;;;14.73;6.80;;;22.50;99.90;;;;;;6214893;23;19997;-82
2022/06/05 05:01:00;;;;;;;9.98;5.15;;;22.50;99.90;;;;;;6215216;23;20384;-82
2022/06/05 05:03:26;;;;;;;11.25;5.10;;;22.60;99.90;;;;;;6215312;23;20024;-82
2022/06/05 05:05:52;;;;;;;10.95;5.50;;;22.60;99.90;;;;;;6213557;23;20009;-82
2022/06/05 05:08:18;;;;;;;9.95;5.05;;;22.70;99.90;;;;;;6215182;23;20076;-81
2022/06/05 05:10:44;;;;;;;7.47;4.75;;;22.70;99.90;;;;;;6214975;23;20453;-82
2022/06/05 05:13:09;;;;;;;8.18;5.05;;;22.80;99.90;;;;;;6215203;23;20079;-82
2022/06/05 05:15:35;;;;;;;8.40;5.30;;;22.80;99.90;;;;;;6215319;23;20004;-82
2022/06/05 05:18:01;;;;;;;11.10;5.10;;;22.90;99.90;;;;;;6213431;23;20016;-82
2022/06/05 05:20:27;;;;;;;8.68;4.82;;;23.00;99.90;;;;;;6214951;23;20605;-81
2022/06/05 05:22:52;;;;;;;11.52;5.82;;;23.00;99.90;;;;;;6215205;23;20001;-82
2022/06/05 05:25:18;;;;;;;10.40;5.30;;;23.10;99.90;;;;;;6215144;23;20004;-82
2022/06/05 05:27:44;;;;;;;8.55;5.00;;;23.10;99.90;;;;;;6215787;23;20011;-82
2022/06/05 05:30:13;;;;;;;8.05;4.90;;;23.20;99.90;;;;;;6217098;23;20071;-80
2022/06/05 05:32:38;;;;;;;8.98;4.97;;;23.20;99.90;;;;;;6216776;23;20005;-81
2022/06/05 05:35:05;;;;;;;11.32;4.80;;;23.20;99.90;;;;;;6217019;23;20494;-81
2022/06/05 05:37:31;;;;;;;14.68;4.93;;;23.30;99.90;;;;;;6216943;23;20076;-81
2022/06/05 05:42:41;;;;;;;10.10;4.68;;;23.30;99.90;;;;;;6216903;23;20067;-82
2022/06/05 05:45:07;;;;;;;11.35;4.95;;;23.30;99.90;;;;;;6216937;23;20004;-82
2022/06/05 05:47:33;;;;;;;10.18;5.00;;;23.40;99.90;;;;;;6216984;23;20001;-80
2022/06/05 05:50:06;;;;;;;6.18;4.63;;;23.40;99.90;;;;;;6216839;23;20008;-82
2022/06/05 05:52:32;;;;;;;10.98;5.28;;;23.40;99.90;;;;;;6215084;23;20011;-81
2022/06/05 05:54:58;;;;;;;10.60;5.57;;;23.50;99.90;;;;;;6216709;23;20071;-81
2022/06/05 05:57:24;;;;;;;11.85;5.05;;;23.60;99.90;;;;;;6216774;23;20428;-81
2022/06/05 05:59:50;;;;;;;7.85;5.75;;;23.60;99.90;;;;;;6216672;23;19997;-82
2022/06/05 06:02:21;;;;;;;10.55;6.22;;;23.70;99.90;;;;;;6216638;23;20035;-82
2022/06/05 06:04:49;;;;;;;12.07;5.95;;;23.70;99.90;;;;;;6216756;23;20050;-81
2022/06/05 06:07:16;;;;;;;12.25;6.32;;;23.80;99.90;;;;;;6216583;23;20000;-81
2022/06/05 06:09:42;;;;;;;11.55;5.45;;;23.80;99.90;;;;;;6216689;23;20075;-81
2022/06/05 06:12:10;;;;;;;16.35;6.80;;;23.80;99.90;;;;;;6216479;23;20011;-83
2022/06/05 06:14:36;;;;;;;11.50;6.40;;;23.90;99.90;;;;;;6216531;23;20067;-82
2022/06/05 06:17:02;;;;;;;11.48;6.63;;;23.90;99.90;;;;;;6216542;23;20003;-81
2022/06/05 06:19:28;;;;;;;16.30;6.75;;;24.00;99.90;;;;;;6216289;23;20349;-82
2022/06/05 06:21:54;;;;;;;11.45;7.22;;;24.00;99.90;;;;;;6216490;23;20001;-82
2022/06/05 06:24:19;;;;;;;11.63;7.18;;;24.10;99.90;;;;;;6214989;23;20001;-82
2022/06/05 06:26:45;;;;;;;13.23;6.80;;;24.10;99.90;;;;;;6216531;23;20421;-81
2022/06/05 06:29:11;;;;;;;11.57;5.95;;;24.10;99.90;;;;;;6216431;23;20314;-81
2022/06/05 06:31:38;;;;;;;12.07;6.57;;;24.20;99.90;;;;;;6214808;23;20083;-82
2022/06/05 06:34:05;;;;;;;15.00;6.32;;;24.20;99.90;;;;;;6214927;23;20059;-81
2022/06/05 06:36:32;;;;;;;20.30;7.18;;;24.20;99.90;;;;;;6216383;23;20007;-82
2022/06/05 06:38:59;;;;;;;13.05;7.60;;;24.30;99.90;;;;;;6216314;23;20071;-81
2022/06/05 06:41:25;;;;;;;12.60;7.22;;;24.40;99.90;;;;;;6214877;23;20012;-82
2022/06/05 06:43:51;;;;;;;13.02;8.48;;;24.40;99.90;;;;;;6216305;23;20507;-82
2022/06/05 06:46:18;;;;;;;13.70;7.60;;;24.50;99.90;;;;;;6216303;23;20000;-82
2022/06/05 06:48:44;;;;;;;15.25;7.43;;;24.60;99.90;;;;;;6216216;23;20026;-81
2022/06/05 06:51:11;;;;;;;8.68;7.30;;;24.60;99.90;;;;;;6215922;23;20027;-81
2022/06/05 06:53:38;;;;;;;14.70;8.90;;;24.60;99.90;;;;;;6216207;23;20000;-82
2022/06/05 06:56:26;;;;;;;18.75;7.70;;;24.60;99.90;;;;;;6216108;23;20090;-81
2022/06/05 06:58:52;;;;;;;13.80;8.73;;;24.80;99.90;;;;;;6216154;23;20030;-81
2022/06/05 07:01:17;;;;;;;14.60;7.82;;;24.80;99.90;;;;;;6216007;23;20432;-81
2022/06/05 07:03:43;;;;;;;14.18;7.57;;;24.90;99.90;;;;;;6216168;23;20000;-81
2022/06/05 07:06:12;;;;;;;15.35;9.05;;;25.00;99.90;;;;;;6215914;23;20032;-81
2022/06/05 07:08:39;;;;;;;10.75;7.25;;;25.00;99.90;;;;;;6216007;23;20007;-82
2022/06/05 07:11:06;;;;;;;15.52;8.38;;;25.00;99.90;;;;;;6215744;23;20004;-82
2022/06/05 07:13:32;;;;;;;14.18;8.15;;;25.10;99.90;;;;;;6214450;23;20000;-81
2022/06/05 07:15:58;;;;;;;22.25;8.27;;;25.10;99.90;;;;;;6215954;23;20329;-81
2022/06/05 07:18:23;;;;;;;15.27;7.63;;;25.10;99.90;;;;;;6215762;23;20448;-81
2022/06/05 07:20:49;;;;;;;15.52;8.20;;;25.10;99.90;;;;;;6215769;23;20046;-82
2022/06/05 07:23:15;;;;;;;10.95;7.53;;;25.20;99.90;;;;;;6214214;23;20009;-81
2022/06/05 07:25:50;;;;;;;12.23;7.50;;;25.20;99.90;;;;;;6215802;23;20005;-81
2022/06/05 07:28:17;;;;;;;17.77;8.45;;;25.30;99.90;;;;;;6215763;23;20425;-81
2022/06/05 07:30:48;;;;;;;11.80;7.57;;;25.30;99.90;;;;;;6215589;23;19993;-81
2022/06/05 07:33:14;;;;;;;11.50;7.07;;;25.30;99.90;;;;;;6215801;23;20027;-81
2022/06/05 07:35:41;;;;;;;16.90;7.75;;;25.40;99.90;;;;;;6215742;23;20360;-81
2022/06/05 07:38:07;;;;;;;13.70;7.32;;;25.40;99.90;;;;;;6215830;23;20001;-81
2022/06/05 07:40:46;;;;;;;13.63;7.63;;;25.60;99.90;;;;;;6215701;23;19996;-81
2022/06/05 07:43:11;;;;;;;11.90;7.82;;;25.70;99.90;;;;;;6214264;23;20009;-81
2022/06/05 07:45:37;;;;;;;18.08;7.03;;;25.80;99.90;;;;;;6215623;23;20491;-81
2022/06/05 07:48:04;;;;;;;13.50;7.72;;;25.70;99.90;;;;;;6214228;23;20083;-81
2022/06/05 07:50:30;;;;;;;15.10;8.50;;;25.80;99.90;;;;;;6215296;23;19997;-81
2022/06/05 07:55:40;;;;;;;21.48;8.98;;;25.80;99.90;;;;;;6215663;23;20035;-81
2022/06/05 07:58:09;;;;;;;16.73;9.02;;;25.90;99.90;;;;;;6215703;23;20001;-82
2022/06/05 08:00:35;;;;;;;11.50;7.97;;;26.10;99.90;;;;;;6215446;23;20012;-80
2022/06/05 08:03:00;;;;;;;12.10;8.82;;;26.10;99.90;;;;;;6215746;23;20332;-81
2022/06/05 08:05:26;;;;;;;20.15;8.52;;;26.20;99.90;;;;;;6214016;23;20008;-81
2022/06/05 08:07:52;;;;;;;17.42;8.70;;;26.30;99.90;;;;;;6215565;23;20423;-81
2022/06/05 08:10:17;;;;;;;14.90;9.23;;;26.30;99.90;;;;;;6215444;23;20475;-81
2022/06/05 08:12:44;;;;;;;17.13;9.23;;;26.40;99.90;;;;;;6213694;23;20333;-81
2022/06/05 08:15:13;;;;;;;14.77;9.00;;;26.40;99.90;;;;;;6215508;23;20393;-81
2022/06/05 08:17:39;;;;;;;19.00;8.88;;;26.40;99.90;;;;;;6215252;23;20000;-81
2022/06/05 08:20:09;;;;;;;15.55;8.68;;;26.40;99.90;;;;;;6215473;23;20040;-81
2022/06/05 08:22:34;;;;;;;12.35;8.75;;;26.40;99.90;;;;;;6215297;23;20011;-81
2022/06/05 08:25:00;;;;;;;15.52;9.80;;;26.50;99.90;;;;;;6215492;23;20004;-81
2022/06/05 08:27:28;;;;;;;12.18;8.52;;;26.70;99.90;;;;;;6215514;23;20447;-81
2022/06/05 08:29:58;;;;;;;13.68;8.27;;;26.70;99.90;;;;;;6215460;23;20050;-81
2022/06/05 08:32:25;;;;;;;15.88;7.57;;;26.60;99.90;;;;;;6215199;23;20000;-81
2022/06/05 08:34:51;;;;;;;16.23;8.55;;;26.70;99.90;;;;;;6213797;23;20086;-81
2022/06/05 08:43:41;;;;;;;15.75;9.13;;;26.80;99.90;;;;;;6215209;23;20024;-81
2022/06/05 08:46:39;;;;;;;13.90;8.57;;;26.80;99.90;;;;;;6210733;23;20005;-81
2022/06/05 08:49:17;;;;;;;16.85;9.05;;;26.80;99.90;;;;;;6184352;23;20005;-81
2022/06/05 08:52:05;;;;;;;12.48;8.35;;;26.90;99.90;;;;;;6215127;23;20001;-81
2022/06/05 08:54:44;;;;;;;14.80;8.32;;;27.00;99.90;;;;;;6215275;23;20000;-81
2022/06/05 08:57:25;;;;;;;14.57;8.85;;;27.00;99.90;;;;;;6213635;23;20001;-81
2022/06/05 09:00:04;;;;;;;9.60;7.28;;;27.00;99.90;;;;;;6215252;23;20000;-81
2022/06/05 09:02:42;;;;;;;12.80;8.13;;;27.10;99.90;;;;;;6216435;23;20074;-81
2022/06/05 09:05:30;;;;;;;13.45;7.88;;;27.20;99.90;;;;;;6217209;23;20050;-81
2022/06/05 09:08:00;;;;;;;12.88;8.32;;;27.30;99.90;;;;;;6202933;23;20008;-81
2022/06/05 09:10:37;;;;;;;15.20;8.35;;;27.50;99.90;;;;;;6216886;23;20028;-81
2022/06/05 09:13:38;;;;;;;12.23;7.40;;;27.50;99.90;;;;;;6217023;23;20452;-81
2022/06/05 09:16:11;;;;;;;13.15;8.05;;;27.50;99.90;;;;;;6168635;23;20024;-81
2022/06/05 09:18:39;;;;;;;10.88;7.20;;;27.60;99.90;;;;;;6216927;23;20019;-81
2022/06/05 09:21:26;;;;;;;17.95;7.85;;;27.80;99.90;;;;;;6217069;23;20034;-81
2022/06/05 09:23:59;;;;;;;13.70;7.00;;;27.90;99.90;;;;;;6217228;23;20005;-81
2022/06/05 09:26:33;;;;;;;11.98;6.90;;;28.00;99.90;;;;;;6215501;23;20004;-81
2022/06/05 09:29:06;;;;;;;7.10;5.90;;;27.90;99.90;;;;;;6216897;23;20008;-81
2022/06/05 09:31:32;;;;;;;14.88;7.22;;;28.00;99.90;;;;;;6216832;23;20024;-81
2022/06/05 09:34:03;;;;;;;12.82;6.85;;;28.10;99.90;;;;;;6216928;23;20464;-81
2022/06/05 09:36:31;;;;;;;7.78;6.85;;;28.30;99.90;;;;;;6216970;23;20000;-81
2022/06/05 09:39:05;;;;;;;11.48;6.80;;;28.40;99.90;;;;;;6216884;23;20311;-81
2022/06/05 09:41:40;;;;;;;9.85;7.22;;;28.40;99.90;;;;;;6216982;23;20028;-81
2022/06/05 09:44:25;;;;;;;11.85;6.85;;;28.50;99.90;;;;;;6216942;23;20009;-81
2022/06/05 09:47:00;;;;;;;11.30;6.82;;;28.50;99.90;;;;;;6215217;23;20028;-82
2022/06/05 09:49:38;;;;;;;14.73;6.95;;;28.50;99.90;;;;;;6216873;23;20008;-81
2022/06/05 09:52:17;;;;;;;14.63;7.60;;;28.60;99.90;;;;;;6214782;23;20501;-81
2022/06/05 09:55:00;;;;;;;18.83;7.53;;;28.70;99.90;;;;;;6216912;23;19996;-82
2022/06/05 10:00:45;;;;;;;11.40;7.07;;;28.60;99.90;;;;;;6216586;23;20513;-81
2022/06/05 10:03:21;;;;;;;9.35;7.07;;;28.60;99.90;;;;;;6216808;23;20070;-82
2022/06/05 10:06:26;;;;;;;12.15;7.20;;;28.70;99.90;;;;;;6216788;23;20008;-80
2022/06/05 10:09:04;;;;;;;14.98;7.47;;;28.90;99.90;;;;;;6170242;23;20047;-81
2022/06/05 10:11:40;;;;;;;19.55;8.75;;;29.00;99.90;;;;;;6216455;23;20380;-82
2022/06/05 10:14:19;;;;;;;14.88;9.57;;;29.20;99.90;;;;;;6216281;23;20004;-82
2022/06/05 10:16:57;;;;;;;14.85;8.32;;;29.30;99.90;;;;;;6216451;23;20028;-81
2022/06/05 10:19:34;;;;;;;9.77;7.50;;;29.40;99.90;;;;;;6214866;23;20021;-82
2022/06/05 10:22:19;;;;;;;12.23;7.60;;;29.40;99.90;;;;;;6216550;23;20009;-82
2022/06/05 10:24:59;;;;;;;21.58;9.27;;;29.50;99.90;;;;;;6215017;23;20488;-82
2022/06/05 10:27:25;;;;;;;14.98;8.23;;;29.50;99.90;;;;;;6216611;23;20008;-82
2022/06/05 10:29:55;;;;;;;13.20;8.48;;;29.60;99.90;;;;;;6216219;23;20591;-80
2022/06/05 10:32:45;;;;;;;15.10;8.40;;;29.70;99.90;;;;;;6216218;23;20001;-81
2022/06/05 10:35:20;;;;;;;16.00;8.05;;;29.70;99.90;;;;;;6216007;23;20080;-81
2022/06/05 10:38:09;;;;;;;10.25;7.80;;;29.70;99.90;;;;;;6216039;23;20004;-82
2022/06/05 10:40:54;;;;;;;17.38;8.55;;;29.70;99.90;;;;;;6214440;23;20059;-81
2022/06/05 10:43:27;;;;;;;15.18;7.97;;;29.80;99.90;;;;;;6214506;23;20039;-82
2022/06/05 10:45:58;;;;;;;13.90;8.80;;;29.90;99.90;;;;;;6216183;23;20024;-82
2022/06/05 10:49:01;;;;;;;11.68;8.73;;;30.00;99.90;;;;;;6216066;23;20000;-81
2022/06/05 10:51:32;;;;;;;11.98;8.57;;;30.10;99.90;;;;;;6215687;23;20332;-81
2022/06/05 10:54:06;;;;;;;;;;;30.20;99.90;;;;;;6216506;23;20084;-81
2022/06/05 10:56:53;;;;;;;12.90;8.93;;;30.20;99.90;;;;;;6216197;23;19907;-82
2022/06/05 10:59:40;;;;;;;12.30;8.55;;;30.20;99.90;;;;;;6215884;23;20000;-81
2022/06/05 11:02:24;;;;;;;10.98;7.90;;;30.10;99.90;;;;;;6215812;23;20005;-81
2022/06/05 11:05:17;;;;;;;11.23;7.50;;;30.20;99.90;;;;;;6215877;23;20004;-81
2022/06/05 11:08:11;;;;;;;13.68;8.20;;;30.20;99.90;;;;;;6215934;23;20079;-81
2022/06/05 11:13:51;;;;;;;12.23;7.88;;;30.50;98.90;;;;;;6215740;23;20038;-82
2022/06/05 11:16:28;;;;;;;12.35;8.63;;;30.50;98.80;;;;;;6214177;23;20011;-81
2022/06/05 11:19:15;;;;;;;15.15;8.90;;;30.40;98.00;;;;;;6215728;23;20012;-82
2022/06/05 11:21:46;;;;;;;14.20;8.15;;;30.40;98.70;;;;;;6215401;23;20099;-81
2022/06/05 11:24:41;;;;;;;17.33;7.23;;;30.40;97.90;;;;;;6215687;23;20075;-82
2022/06/05 11:27:16;;;;;;;13.07;7.50;;;30.50;98.10;;;;;;6196804;23;20238;-81
2022/06/05 11:29:54;;;;;;;13.27;6.68;;;30.70;99.00;;;;;;6213017;23;20005;-81
2022/06/05 11:32:28;;;;;;;10.13;7.15;;;30.60;97.50;;;;;;6213055;23;20453;-81
2022/06/05 11:35:11;;;;;;;11.23;7.88;;;30.60;98.80;;;;;;6211276;23;20000;-81
2022/06/05 11:37:58;;;;;;;8.57;6.70;;;30.50;97.50;;;;;;6213026;23;20004;-81
2022/06/05 11:40:32;;;;;;;10.55;7.18;;;30.50;97.30;;;;;;6213189;23;19997;-80
2022/06/05 11:43:27;;;;;;;10.50;6.50;;;30.60;97.50;;;;;;6212717;23;20091;-80
2022/06/05 11:46:11;;;;;;;9.15;6.57;;;30.80;97.80;;;;;;6213899;23;20118;-82
2022/06/05 11:49:07;;;;;;;14.80;7.28;;;30.90;96.20;;;;;;6215856;23;20448;-81
2022/06/05 11:52:12;;;;;;;13.75;6.30;;;30.90;95.20;;;;;;6215388;23;20376;-81
2022/06/05 11:55:07;;;;;;;10.80;6.72;;;31.10;96.40;;;;;;6214144;23;20092;-82
2022/06/05 11:57:38;;;;;;;10.90;6.50;;;31.10;94.20;;;;;;6176465;23;20070;-81
2022/06/05 12:00:07;;;;;;;15.77;6.50;;;31.20;93.80;;;;;;6214033;23;20063;-81
2022/06/05 12:02:43;;;;;;;11.43;6.35;;;31.20;94.30;;;;;;6215754;23;20012;-82
2022/06/05 12:05:13;;;;;;;13.43;6.57;;;31.40;95.90;;;;;;6214070;23;20005;-81
2022/06/05 12:07:40;;;;;;;13.30;6.82;;;31.40;95.10;;;;;;6215631;23;20001;-81
2022/06/05 12:10:28;;;;;;;14.60;7.18;;;31.50;93.80;;;;;;6215434;23;20000;-81
2022/06/05 12:13:30;;;;;;;13.75;6.35;;;31.70;94.40;;;;;;6215575;23;20088;-81
2022/06/05 12:16:16;;;;;;;11.60;7.63;;;31.70;93.10;;;;;;6215484;23;19997;-81
2022/06/05 12:18:56;;;;;;;15.75;7.50;;;31.90;93.80;;;;;;6215448;23;20393;-82
2022/06/05 12:21:36;;;;;;;9.63;6.97;;;32.10;91.80;;;;;;6215336;23;20039;-81
2022/06/05 12:24:24;;;;;;;10.70;7.63;;;32.10;93.00;;;;;;6215522;23;20001;-81
2022/06/05 12:27:17;;;;;;;10.65;7.07;;;32.10;92.30;;;;;;6215306;23;20395;-81
2022/06/05 12:30:03;;;;;;;11.27;6.97;;;32.10;91.70;;;;;;6211606;23;20008;-80
2022/06/05 12:32:48;;;;;;;15.02;7.38;;;32.20;92.20;;;;;;6215351;23;20004;-80
2022/06/05 12:35:28;;;;;;;8.52;6.55;;;32.30;92.60;;;;;;6213857;23;20032;-81
2022/06/05 12:38:16;;;;;;;11.57;7.65;;;32.50;93.00;;;;;;6215299;23;20451;-82
2022/06/05 12:41:16;;;;;;;12.55;5.97;;;32.70;92.50;;;;;;6215314;23;19997;-80
2022/06/05 12:44:19;;;;;;;10.65;6.10;;;32.90;91.00;;;;;;6165051;23;20062;-80
2022/06/05 12:46:53;;;;;;;7.82;6.00;;;33.00;90.10;;;;;;6215166;23;20036;-82
2022/06/05 12:49:49;;;;;;;17.35;6.05;;;33.10;87.90;;;;;;6214965;23;20005;-81
2022/06/05 12:52:47;;;;;;;8.52;6.22;;;32.90;87.60;;;;;;6213485;23;20008;-81
2022/06/05 12:55:22;;;;;;;9.35;6.32;;;32.50;90.00;;;;;;6215312;23;20456;-81
2022/06/05 12:58:25;;;;;;;12.88;6.45;;;32.40;91.10;;;;;;6215112;23;20001;-81
2022/06/05 13:01:02;;;;;;;13.93;6.70;;;32.30;90.00;;;;;;6215006;23;20086;-81
2022/06/05 13:03:40;;;;;;;15.07;6.22;;;32.20;90.80;;;;;;6215210;23;20000;-80
2022/06/05 13:06:38;;;;;;;14.63;7.00;;;32.10;90.00;;;;;;6215123;23;20019;-80
2022/06/05 13:09:28;;;;;;;9.93;6.20;;;32.10;90.70;;;;;;6172716;23;20441;-81
2022/06/05 13:12:19;;;;;;;10.63;5.77;;;32.00;90.50;;;;;;6157553;23;20318;-81
2022/06/05 13:15:12;;;;;;;16.15;5.25;;;31.80;91.00;;;;;;6213409;23;20392;-81
2022/06/05 13:17:49;;;;;;;17.25;7.03;;;31.70;90.30;;;;;;6213458;23;19993;-80
2022/06/05 13:20:20;;;;;;;9.18;5.20;;;31.70;91.10;;;;;;6215049;23;20348;-81
2022/06/05 13:23:11;;;;;;;12.73;6.07;;;31.60;90.50;;;;;;6215203;23;20005;-80
2022/06/05 13:25:51;;;;;;;15.38;6.53;;;31.50;89.40;;;;;;6214967;23;20337;-81
2022/06/05 13:28:42;;;;;;;15.45;6.35;;;31.40;90.50;;;;;;6213480;23;20005;-81
2022/06/05 13:31:15;;;;;;;11.38;4.68;;;31.30;90.30;;;;;;6213206;23;20001;-80